createdAt,value
2023-11-26T00:00:32.660Z,1.50
2023-11-26T00:03:00.043Z,1.60
2023-11-26T00:05:27.487Z,1.58
2023-11-26T00:07:54.762Z,1.45
2023-11-26T00:10:22.106Z,1.35
2023-11-26T00:12:49.316Z,1.38
2023-11-26T00:15:16.546Z,1.50
2023-11-26T00:17:44.183Z,1.67
2023-11-26T00:20:11.750Z,1.90
2023-11-26T00:22:38.960Z,1.30
2023-11-26T00:25:06.402Z,1.63
2023-11-26T00:27:34.715Z,1.30
2023-11-26T00:30:02.586Z,1.55
2023-11-26T00:32:31.604Z,1.42
2023-11-26T00:34:59.535Z,1.35
2023-11-26T00:37:26.792Z,1.77
2023-11-26T00:39:53.981Z,1.60
2023-11-26T00:42:21.202Z,2.20
2023-11-26T00:44:48.368Z,2.30
2023-11-26T00:47:15.655Z,2.55
2023-11-26T00:49:43.010Z,2.58
2023-11-26T00:52:10.320Z,2.15
2023-11-26T00:54:37.529Z,2.25
2023-11-26T00:57:04.767Z,2.60
2023-11-26T00:59:31.983Z,2.10
2023-11-26T01:01:59.301Z,2.70
2023-11-26T01:04:26.558Z,2.08
2023-11-26T01:06:54.938Z,2.35
2023-11-26T01:09:22.165Z,2.50
2023-11-26T01:11:49.330Z,2.10
2023-11-26T01:14:16.610Z,1.50
2023-11-26T01:16:43.915Z,1.63
2023-11-26T01:19:11.110Z,1.60
2023-11-26T01:21:38.431Z,1.70
2023-11-26T01:24:07.333Z,1.92
2023-11-26T01:26:34.581Z,1.95
2023-11-26T01:29:02.868Z,2.20
2023-11-26T01:31:30.142Z,2.10
2023-11-26T01:33:57.313Z,2.28
2023-11-26T01:36:24.960Z,2.10
2023-11-26T01:38:52.583Z,2.60
2023-11-26T01:41:19.882Z,2.40
2023-11-26T01:43:47.225Z,2.30
2023-11-26T01:46:15.254Z,2.25
2023-11-26T01:48:42.683Z,2.00
2023-11-26T01:51:11.922Z,1.65
2023-11-26T01:53:40.572Z,2.40
2023-11-26T01:56:08.996Z,1.90
2023-11-26T01:58:36.562Z,2.00
2023-11-26T02:01:04.601Z,1.80
2023-11-26T02:03:31.932Z,1.58
2023-11-26T02:05:59.277Z,1.45
2023-11-26T02:08:28.069Z,1.50
2023-11-26T02:10:56.524Z,1.52
2023-11-26T02:13:23.733Z,1.50
2023-11-26T02:15:50.939Z,1.30
2023-11-26T02:18:20.640Z,1.10
2023-11-26T02:20:47.966Z,1.20
2023-11-26T02:23:15.471Z,1.20
2023-11-26T02:25:42.764Z,1.00
2023-11-26T02:28:10.837Z,0.90
2023-11-26T02:30:38.021Z,1.00
2023-11-26T02:33:05.430Z,0.93
2023-11-26T02:35:32.658Z,0.82
2023-11-26T02:38:01.039Z,1.00
2023-11-26T02:40:28.254Z,1.48
2023-11-26T02:42:57.729Z,1.40
2023-11-26T02:45:24.987Z,1.20
2023-11-26T02:47:52.235Z,1.23
2023-11-26T02:50:19.453Z,1.52
2023-11-26T02:52:46.611Z,1.30
2023-11-26T02:55:13.847Z,1.42
2023-11-26T02:57:41.036Z,1.35
2023-11-26T03:00:16.869Z,1.60
2023-11-26T03:02:47.594Z,1.40
2023-11-26T03:05:23.127Z,1.38
2023-11-26T03:07:59.370Z,1.80
2023-11-26T03:10:45.248Z,1.70
2023-11-26T03:13:21.965Z,1.73
2023-11-26T03:15:50.253Z,1.92
2023-11-26T03:18:18.601Z,1.77
2023-11-26T03:20:46.838Z,2.10
2023-11-26T03:23:15.087Z,2.10
2023-11-26T03:25:42.495Z,1.63
2023-11-26T03:28:09.853Z,2.25
2023-11-26T03:30:37.302Z,2.17
2023-11-26T03:33:05.117Z,2.60
2023-11-26T03:35:32.555Z,2.33
2023-11-26T03:37:59.873Z,2.30
2023-11-26T03:40:27.224Z,2.45
2023-11-26T03:42:54.392Z,2.55
2023-11-26T03:45:22.064Z,2.53
2023-11-26T03:47:49.557Z,2.20
2023-11-26T03:50:16.849Z,2.70
2023-11-26T03:52:44.533Z,2.25
2023-11-26T03:55:11.821Z,2.47
2023-11-26T03:57:43.661Z,2.33
2023-11-26T04:00:11.553Z,2.25
2023-11-26T04:02:39.461Z,2.22
2023-11-26T04:05:09.033Z,2.53
2023-11-26T04:07:36.668Z,1.95
2023-11-26T04:10:04.586Z,2.28
2023-11-26T04:12:31.881Z,2.00
2023-11-26T04:15:01.828Z,2.28
2023-11-26T04:17:30.133Z,2.22
2023-11-26T04:19:57.482Z,1.90
2023-11-26T04:22:25.124Z,2.88
2023-11-26T04:24:52.365Z,1.88
2023-11-26T04:27:20.386Z,2.00
2023-11-26T04:29:50.404Z,2.58
2023-11-26T04:32:17.973Z,2.22
2023-11-26T04:34:45.394Z,2.00
2023-11-26T04:37:13.132Z,1.80
2023-11-26T04:39:40.962Z,1.88
2023-11-26T04:42:08.491Z,1.80
2023-11-26T04:44:35.820Z,1.42
2023-11-26T04:47:03.288Z,1.73
2023-11-26T04:49:30.486Z,2.03
2023-11-26T04:51:57.657Z,1.60
2023-11-26T04:54:27.925Z,1.50
2023-11-26T04:56:55.213Z,1.60
2023-11-26T04:59:22.461Z,1.80
2023-11-26T05:01:56.842Z,1.30
2023-11-26T05:04:24.395Z,2.38
2023-11-26T05:06:51.665Z,1.40
2023-11-26T05:09:18.947Z,1.70
2023-11-26T05:11:47.143Z,1.95
2023-11-26T05:14:14.636Z,1.65
2023-11-26T05:16:42.345Z,1.60
2023-11-26T05:19:09.541Z,1.27
2023-11-26T05:21:36.760Z,1.90
2023-11-26T05:24:05.731Z,1.40
2023-11-26T05:26:33.040Z,1.50
2023-11-26T05:29:00.453Z,1.55
2023-11-26T05:31:27.701Z,1.60
2023-11-26T05:33:55.597Z,1.88
2023-11-26T05:36:24.291Z,1.67
2023-11-26T05:38:51.500Z,1.30
2023-11-26T05:41:19.640Z,1.83
2023-11-26T05:43:47.421Z,1.55
2023-11-26T05:46:15.369Z,1.70
2023-11-26T05:48:42.917Z,1.70
2023-11-26T05:51:10.568Z,2.25
2023-11-26T05:53:37.909Z,1.75
2023-11-26T05:56:08.517Z,2.00
2023-11-26T05:58:36.737Z,2.08
2023-11-26T06:01:05.737Z,1.85
2023-11-26T06:03:33.084Z,1.85
2023-11-26T06:06:00.508Z,1.65
2023-11-26T06:08:27.679Z,1.95
2023-11-26T06:10:54.978Z,2.15
2023-11-26T06:13:22.171Z,1.90
2023-11-26T06:15:49.405Z,2.20
2023-11-26T06:18:17.769Z,2.28
2023-11-26T06:20:45.016Z,2.40
2023-11-26T06:23:12.197Z,2.17
2023-11-26T06:25:39.378Z,2.15
2023-11-26T06:28:06.559Z,2.17
2023-11-26T06:30:33.809Z,2.45
2023-11-26T06:33:02.600Z,2.03
2023-11-26T06:35:29.929Z,1.77
2023-11-26T06:37:57.117Z,2.00
2023-11-26T06:40:24.378Z,1.77
2023-11-26T06:42:51.564Z,1.90
2023-11-26T06:45:18.792Z,2.22
2023-11-26T06:47:46.005Z,2.10
2023-11-26T06:50:13.266Z,1.63
2023-11-26T06:52:40.506Z,2.00
2023-11-26T06:55:07.831Z,1.98
2023-11-26T06:57:35.029Z,1.85
2023-11-26T07:00:02.455Z,2.08
2023-11-26T07:02:29.619Z,2.25
2023-11-26T07:04:57.028Z,1.90
2023-11-26T07:07:24.272Z,1.98
2023-11-26T07:09:52.835Z,1.90
2023-11-26T07:12:20.105Z,2.25
2023-11-26T07:14:47.374Z,2.05
2023-11-26T07:17:14.743Z,2.00
2023-11-26T07:19:42.917Z,2.00
2023-11-26T07:22:10.204Z,2.40
2023-11-26T07:24:37.474Z,2.05
2023-11-26T07:27:04.820Z,1.98
2023-11-26T07:29:36.557Z,2.20
2023-11-26T07:32:04.410Z,2.08
2023-11-26T07:34:32.074Z,2.22
2023-11-26T07:36:59.497Z,2.45
2023-11-26T07:39:27.713Z,2.22
2023-11-26T07:41:55.174Z,2.08
2023-11-26T07:44:24.099Z,2.35
2023-11-26T07:46:51.342Z,2.20
2023-11-26T07:49:20.254Z,2.10
2023-11-26T07:51:48.281Z,2.10
2023-11-26T07:54:23.514Z,2.10
2023-11-26T07:56:53.027Z,2.13
2023-11-26T07:59:20.834Z,2.08
2023-11-26T08:01:51.854Z,2.20
2023-11-26T08:04:19.801Z,2.42
2023-11-26T08:06:50.330Z,2.65
2023-11-26T08:09:18.466Z,2.25
2023-11-26T08:11:47.518Z,2.22
2023-11-26T08:14:15.563Z,2.20
2023-11-26T08:16:43.182Z,2.00
2023-11-26T08:19:14.591Z,2.10
2023-11-26T08:21:41.867Z,1.90
2023-11-26T08:24:15.100Z,2.25
2023-11-26T08:26:42.784Z,1.73
2023-11-26T08:29:11.019Z,2.08
2023-11-26T08:31:42.109Z,1.90
2023-11-26T08:34:09.552Z,2.10
2023-11-26T08:36:43.183Z,2.05
2023-11-26T08:39:27.153Z,2.03
2023-11-26T08:41:54.830Z,1.95
2023-11-26T08:44:22.066Z,2.50
2023-11-26T08:46:49.425Z,2.22
2023-11-26T08:49:21.875Z,2.00
2023-11-26T08:51:49.301Z,2.00
2023-11-26T08:54:16.730Z,2.15
2023-11-26T08:56:44.400Z,2.05
2023-11-26T08:59:11.599Z,2.00
2023-11-26T09:01:39.192Z,1.75
2023-11-26T09:04:06.763Z,2.15
2023-11-26T09:06:34.250Z,1.77
2023-11-26T09:09:01.566Z,1.80
2023-11-26T09:11:28.764Z,2.30
2023-11-26T09:13:59.045Z,1.90
2023-11-26T09:16:26.868Z,1.90
2023-11-26T09:18:54.090Z,2.10
2023-11-26T09:21:23.950Z,2.20
2023-11-26T09:23:53.068Z,2.50
2023-11-26T09:26:20.432Z,2.30
2023-11-26T09:28:53.757Z,2.00
2023-11-26T09:31:24.526Z,2.25
2023-11-26T09:33:51.885Z,2.30
2023-11-26T09:36:19.220Z,2.08
2023-11-26T09:38:46.451Z,2.10
2023-11-26T09:41:20.109Z,1.80
2023-11-26T09:43:49.000Z,2.22
2023-11-26T09:46:16.894Z,2.28
2023-11-26T09:48:45.405Z,1.60
2023-11-26T09:51:13.592Z,2.45
2023-11-26T09:53:41.823Z,2.45
2023-11-26T09:56:12.940Z,2.00
2023-11-26T09:58:40.502Z,2.10
2023-11-26T10:01:08.806Z,1.95
2023-11-26T10:03:54.770Z,2.20
2023-11-26T10:06:21.985Z,2.60
2023-11-26T10:08:49.186Z,2.15
2023-11-26T10:11:23.253Z,2.40
2023-11-26T10:13:52.019Z,2.13
2023-11-26T10:16:34.759Z,2.75
2023-11-26T10:19:03.738Z,2.55
2023-11-26T10:21:31.718Z,2.35
2023-11-26T10:24:03.144Z,2.30
2023-11-26T10:26:31.573Z,2.33
2023-11-26T10:29:02.129Z,2.25
2023-11-26T10:31:29.478Z,1.90
2023-11-26T10:34:16.951Z,2.20
2023-11-26T10:36:44.744Z,2.92
2023-11-26T10:39:13.351Z,2.03
2023-11-26T10:41:41.580Z,2.30
2023-11-26T10:44:09.589Z,2.58
2023-11-26T10:46:37.678Z,2.30
2023-11-26T10:49:10.114Z,4.22
2023-11-26T10:51:39.114Z,2.35
2023-11-26T10:54:09.930Z,2.28
2023-11-26T10:56:41.343Z,2.20
2023-11-26T10:59:09.600Z,2.50
2023-11-26T11:01:38.221Z,1.90
2023-11-26T11:04:06.528Z,1.88
2023-11-26T11:06:34.605Z,2.17
2023-11-26T11:09:02.030Z,2.08
2023-11-26T11:11:44.546Z,2.85
2023-11-26T11:14:12.251Z,2.17
2023-11-26T11:16:39.667Z,2.42
2023-11-26T11:19:06.878Z,2.10
2023-11-26T11:21:48.329Z,2.40
2023-11-26T11:24:21.632Z,2.30
2023-11-26T11:26:48.846Z,1.90
2023-11-26T11:29:43.610Z,2.10
2023-11-26T11:32:11.127Z,2.70
2023-11-26T11:34:38.339Z,2.13
2023-11-26T11:37:09.272Z,1.85
2023-11-26T11:39:46.272Z,2.30
2023-11-26T11:42:14.816Z,2.17
2023-11-26T11:44:43.601Z,2.05
2023-11-26T11:47:11.910Z,1.80
2023-11-26T11:49:52.281Z,2.00
2023-11-26T11:52:20.603Z,2.40
2023-11-26T11:54:53.774Z,2.38
2023-11-26T11:57:24.079Z,2.20
2023-11-26T11:59:52.028Z,2.60
2023-11-26T12:02:19.418Z,2.17
2023-11-26T12:04:50.308Z,2.65
2023-11-26T12:07:19.126Z,2.65
2023-11-26T12:09:46.910Z,2.13
2023-11-26T12:12:19.764Z,2.15
2023-11-26T12:14:47.233Z,2.40
2023-11-26T12:17:14.617Z,2.20
2023-11-26T12:19:43.387Z,2.10
2023-11-26T12:22:11.778Z,1.88
2023-11-26T12:24:40.031Z,2.30
2023-11-26T12:27:09.211Z,2.00
2023-11-26T12:29:37.491Z,1.77
2023-11-26T12:32:07.652Z,1.98
2023-11-26T12:34:38.536Z,1.98
2023-11-26T12:37:06.477Z,1.80
2023-11-26T12:39:35.367Z,1.92
2023-11-26T12:42:02.659Z,2.20
2023-11-26T12:44:29.972Z,2.08
2023-11-26T12:47:13.165Z,1.83
2023-11-26T12:49:41.331Z,1.92
2023-11-26T12:52:09.315Z,2.00
2023-11-26T12:54:37.206Z,2.20
2023-11-26T12:57:07.911Z,2.45
2023-11-26T12:59:47.654Z,1.95
2023-11-26T13:02:15.600Z,2.25
2023-11-26T13:04:42.946Z,2.40
2023-11-26T13:07:10.335Z,2.30
2023-11-26T13:09:50.220Z,2.28
2023-11-26T13:12:17.709Z,2.20
2023-11-26T13:14:46.830Z,1.98
2023-11-26T13:17:14.594Z,2.00
2023-11-26T13:19:43.986Z,1.83
2023-11-26T13:22:13.422Z,1.70
2023-11-26T13:24:40.754Z,2.03
2023-11-26T13:27:09.398Z,1.70
2023-11-26T13:29:36.814Z,2.50
2023-11-26T13:32:04.103Z,2.28
2023-11-26T13:34:31.357Z,2.30
2023-11-26T13:36:58.636Z,2.38
2023-11-26T13:39:25.978Z,2.13
2023-11-26T13:41:53.222Z,1.92
2023-11-26T13:44:21.325Z,1.95
2023-11-26T13:46:48.661Z,1.90
2023-11-26T13:49:18.555Z,2.00
2023-11-26T13:51:46.980Z,1.90
2023-11-26T13:54:14.316Z,2.30
2023-11-26T13:56:43.307Z,2.83
2023-11-26T13:59:10.957Z,2.35
2023-11-26T14:01:38.368Z,2.50
2023-11-26T14:04:06.124Z,2.70
2023-11-26T14:06:33.601Z,3.05
2023-11-26T14:09:00.827Z,2.80
2023-11-26T14:11:28.911Z,2.90
2023-11-26T14:13:56.755Z,2.60
2023-11-26T14:16:24.002Z,2.38
2023-11-26T14:18:51.376Z,2.80
2023-11-26T14:21:18.599Z,2.92
2023-11-26T14:23:45.774Z,2.75
2023-11-26T14:26:12.997Z,2.67
2023-11-26T14:28:41.065Z,2.90
2023-11-26T14:31:09.653Z,2.67
2023-11-26T14:33:37.143Z,3.00
2023-11-26T14:36:04.788Z,2.50
2023-11-26T14:38:32.047Z,2.63
2023-11-26T14:41:00.308Z,2.75
2023-11-26T14:43:27.693Z,2.63
2023-11-26T14:45:55.487Z,2.60
2023-11-26T14:48:23.968Z,2.88
2023-11-26T14:50:51.184Z,2.75
2023-11-26T14:53:18.453Z,3.10
2023-11-26T14:55:45.647Z,3.05
2023-11-26T14:58:12.819Z,2.45
2023-11-26T15:00:40.099Z,2.53
2023-11-26T15:03:07.336Z,3.08
2023-11-26T15:05:34.518Z,3.03
2023-11-26T15:08:01.792Z,2.63
2023-11-26T15:10:29.988Z,2.83
2023-11-26T15:12:57.643Z,2.70
2023-11-26T15:15:24.930Z,2.95
2023-11-26T15:17:52.766Z,2.90
2023-11-26T15:20:19.980Z,3.10
2023-11-26T15:22:47.158Z,3.00
2023-11-26T15:25:15.615Z,2.83
2023-11-26T15:27:43.179Z,3.13
2023-11-26T15:30:11.430Z,2.80
2023-11-26T15:32:40.861Z,2.80
2023-11-26T15:35:09.522Z,3.10
2023-11-26T15:37:38.696Z,2.88
2023-11-26T15:40:11.437Z,3.63
2023-11-26T15:42:39.230Z,3.00
2023-11-26T15:45:08.911Z,2.60
2023-11-26T15:47:36.488Z,2.90
2023-11-26T15:50:04.279Z,2.85
2023-11-26T15:52:31.457Z,3.17
2023-11-26T15:54:58.711Z,2.83
2023-11-26T15:57:26.308Z,3.00
2023-11-26T15:59:54.109Z,3.25
2023-11-26T16:02:21.466Z,3.10
2023-11-26T16:04:49.446Z,3.25
2023-11-26T16:07:17.062Z,3.00
2023-11-26T16:09:49.077Z,2.70
2023-11-26T16:12:17.706Z,3.30
2023-11-26T16:14:44.905Z,3.15
2023-11-26T16:17:23.118Z,3.17
2023-11-26T16:19:57.103Z,2.88
2023-11-26T16:22:24.629Z,3.15
2023-11-26T16:24:51.867Z,3.67
2023-11-26T16:27:19.109Z,3.05
2023-11-26T16:29:46.318Z,2.90
2023-11-26T16:32:13.558Z,3.42
2023-11-26T16:34:40.727Z,3.95
2023-11-26T16:37:09.066Z,3.30
2023-11-26T16:39:36.788Z,3.40
2023-11-26T16:42:07.372Z,3.45
2023-11-26T16:44:39.374Z,3.28
2023-11-26T16:47:06.707Z,3.50
2023-11-26T16:49:36.111Z,4.30
2023-11-26T16:52:04.024Z,4.20
2023-11-26T16:54:31.752Z,3.50
2023-11-26T16:56:58.963Z,3.88
2023-11-26T16:59:26.681Z,3.58
2023-11-26T17:01:53.995Z,3.78
2023-11-26T17:04:21.227Z,3.55
2023-11-26T17:06:48.458Z,3.50
2023-11-26T17:09:15.755Z,3.50
2023-11-26T17:11:44.053Z,3.60
2023-11-26T17:14:11.224Z,4.00
2023-11-26T17:16:39.467Z,3.30
2023-11-26T17:19:07.440Z,3.25
2023-11-26T17:21:38.693Z,3.40
2023-11-26T17:24:06.023Z,3.67
2023-11-26T17:26:34.243Z,3.75
2023-11-26T17:29:01.840Z,3.55
2023-11-26T17:31:30.377Z,3.22
2023-11-26T17:34:00.044Z,4.18
2023-11-26T17:36:28.410Z,3.20
2023-11-26T17:38:55.605Z,3.05
2023-11-26T17:41:22.782Z,3.40
2023-11-26T17:43:51.858Z,3.28
2023-11-26T17:46:20.505Z,3.10
2023-11-26T17:48:47.810Z,3.63
2023-11-26T17:51:15.227Z,3.05
2023-11-26T17:53:42.404Z,3.00
2023-11-26T17:56:16.451Z,3.15
2023-11-26T17:58:43.704Z,3.37
2023-11-26T18:01:16.383Z,3.50
2023-11-26T18:03:43.735Z,3.33
2023-11-26T18:06:11.820Z,3.28
2023-11-26T18:08:39.299Z,3.83
2023-11-26T18:11:12.914Z,3.22
2023-11-26T18:13:40.129Z,3.03
2023-11-26T18:16:10.457Z,3.10
2023-11-26T18:18:38.905Z,3.72
2023-11-26T18:21:06.170Z,3.92
2023-11-26T18:23:33.357Z,3.00
2023-11-26T18:26:01.109Z,3.05
2023-11-26T18:28:28.301Z,4.00
2023-11-26T18:30:55.499Z,3.13
2023-11-26T18:33:22.705Z,3.08
2023-11-26T18:35:49.866Z,3.25
2023-11-26T18:38:17.102Z,3.38
2023-11-26T18:40:45.201Z,3.25
2023-11-26T18:43:13.427Z,3.30
2023-11-26T18:45:40.838Z,3.58
2023-11-26T18:48:08.956Z,3.20
2023-11-26T18:50:39.016Z,3.40
2023-11-26T18:53:06.254Z,3.35
2023-11-26T18:55:33.431Z,3.33
2023-11-26T18:58:00.629Z,3.70
2023-11-26T19:00:27.805Z,3.15
2023-11-26T19:02:55.053Z,3.08
2023-11-26T19:05:22.274Z,3.90
2023-11-26T19:07:49.457Z,3.80
2023-11-26T19:10:16.875Z,3.60
2023-11-26T19:12:44.103Z,3.45
2023-11-26T19:15:11.414Z,3.83
2023-11-26T19:17:38.676Z,3.38
2023-11-26T19:20:06.138Z,3.22
2023-11-26T19:22:33.453Z,3.58
2023-11-26T19:25:01.763Z,3.13
2023-11-26T19:27:32.071Z,3.40
2023-11-26T19:29:59.495Z,3.10
2023-11-26T19:32:26.753Z,3.20
2023-11-26T19:34:53.985Z,3.00
2023-11-26T19:37:22.817Z,3.50
2023-11-26T19:39:50.025Z,2.92
2023-11-26T19:42:17.307Z,3.30
2023-11-26T19:44:44.488Z,3.20
2023-11-26T19:47:11.966Z,2.97
2023-11-26T19:49:39.180Z,3.72
2023-11-26T19:52:06.829Z,3.28
2023-11-26T19:54:34.125Z,2.88
2023-11-26T19:57:02.268Z,3.00
2023-11-26T19:59:29.462Z,3.10
2023-11-26T20:01:57.837Z,3.22
2023-11-26T20:04:26.172Z,3.15
2023-11-26T20:06:53.450Z,3.30
2023-11-26T20:09:21.712Z,3.40
2023-11-26T20:11:48.882Z,3.40
2023-11-26T20:14:16.070Z,3.00
2023-11-26T20:16:43.240Z,3.15
2023-11-26T20:19:10.525Z,3.20
2023-11-26T20:21:38.952Z,3.30
2023-11-26T20:24:07.444Z,3.40
2023-11-26T20:26:34.706Z,3.25
2023-11-26T20:29:03.356Z,3.03
2023-11-26T20:31:30.852Z,3.10
2023-11-26T20:34:03.402Z,3.63
2023-11-26T20:36:32.282Z,3.60
2023-11-26T20:39:00.456Z,3.45
2023-11-26T20:41:27.835Z,3.38
2023-11-26T20:43:55.045Z,3.35
2023-11-26T20:46:23.100Z,3.28
2023-11-26T20:48:52.687Z,3.35
2023-11-26T20:51:31.836Z,3.15
2023-11-26T20:54:01.713Z,2.97
2023-11-26T20:56:29.217Z,3.83
2023-11-26T20:58:58.196Z,2.83
2023-11-26T21:01:26.921Z,3.08
2023-11-26T21:03:54.243Z,3.50
2023-11-26T21:06:21.460Z,3.40
2023-11-26T21:08:48.854Z,3.63
2023-11-26T21:11:16.060Z,3.20
2023-11-26T21:13:43.589Z,3.58
2023-11-26T21:16:11.133Z,3.35
2023-11-26T21:18:39.367Z,3.10
2023-11-26T21:21:06.684Z,3.20
2023-11-26T21:23:33.893Z,2.85
2023-11-26T21:26:01.081Z,3.72
2023-11-26T21:28:28.258Z,3.15
2023-11-26T21:30:55.553Z,3.17
2023-11-26T21:33:22.811Z,3.45
2023-11-26T21:35:50.052Z,3.20
2023-11-26T21:38:17.293Z,3.15
2023-11-26T21:40:52.994Z,3.00
2023-11-26T21:43:24.555Z,3.30
2023-11-26T21:45:52.494Z,3.10
2023-11-26T21:48:20.534Z,3.00
2023-11-26T21:50:48.428Z,3.40
2023-11-26T21:53:15.672Z,2.92
2023-11-26T21:55:46.022Z,3.15
2023-11-26T21:58:13.298Z,3.28
2023-11-26T22:00:43.694Z,3.25
2023-11-26T22:03:11.212Z,3.05
2023-11-26T22:05:38.493Z,3.03
2023-11-26T22:08:05.728Z,3.65
2023-11-26T22:10:33.028Z,3.20
2023-11-26T22:13:00.291Z,3.45
2023-11-26T22:15:27.577Z,2.83
2023-11-26T22:17:54.758Z,2.95
2023-11-26T22:20:21.949Z,3.00
2023-11-26T22:22:49.111Z,3.60
2023-11-26T22:25:16.506Z,3.30
2023-11-26T22:27:44.682Z,2.92
2023-11-26T22:30:12.922Z,3.10
2023-11-26T22:32:40.755Z,3.50
2023-11-26T22:35:10.137Z,3.17
2023-11-26T22:37:40.769Z,3.47
2023-11-26T22:40:08.312Z,3.08
2023-11-26T22:42:35.598Z,3.42
2023-11-26T22:45:02.842Z,3.58
2023-11-26T22:47:30.150Z,3.40
2023-11-26T22:49:57.348Z,3.17
2023-11-26T22:52:24.545Z,3.45
2023-11-26T22:54:51.725Z,3.22
2023-11-26T22:57:18.967Z,3.53
2023-11-26T22:59:46.128Z,2.72
2023-11-26T23:02:13.692Z,2.90
2023-11-26T23:04:41.282Z,2.63
2023-11-26T23:07:08.612Z,2.58
2023-11-26T23:09:35.888Z,2.85
2023-11-26T23:12:04.528Z,2.65
2023-11-26T23:14:31.804Z,2.40
2023-11-26T23:16:59.033Z,2.85
2023-11-26T23:19:26.307Z,2.75
2023-11-26T23:21:53.577Z,2.45
2023-11-26T23:24:20.787Z,2.78
2023-11-26T23:26:48.449Z,2.60
2023-11-26T23:29:15.655Z,2.58
2023-11-26T23:31:42.828Z,2.38
2023-11-26T23:34:10.150Z,2.42
2023-11-26T23:36:37.426Z,2.33
2023-11-26T23:39:04.583Z,2.60
2023-11-26T23:41:31.744Z,2.58
2023-11-26T23:43:59.019Z,2.10
2023-11-26T23:46:26.264Z,2.50
2023-11-26T23:48:53.836Z,2.20
2023-11-26T23:51:21.045Z,2.17
2023-11-26T23:53:48.222Z,2.00
2023-11-26T23:56:15.875Z,1.98
2023-11-26T23:58:43.170Z,2.00
